Time;durP1;ratioP1;P1;durP2;ratioP2;P2;SDS_P1;SDS_P2;PMS_P1;PMS_P2;Temp;Humidity;BMP_temperature;BMP_pressure;BME280_temperature;BME280_humidity;BME280_pressure;Samples;Min_cycle;Max_cycle;Signal;HPM_P1;HPM_P2
2022/12/13 00:00:13;;;;;;;97.30;40.70;;;;;;;3.11;79.85;100774.03;4984604;28;20061;-82
2022/12/13 00:02:58;;;;;;;90.90;40.95;;;;;;;2.97;79.58;100753.78;4945278;28;20058;-81
2022/12/13 00:05:26;;;;;;;90.95;39.97;;;;;;;3.16;80.63;100776.41;4944025;28;20062;-81
2022/12/13 00:07:57;;;;;;;105.97;41.97;;;;;;;3.14;80.28;100792.22;4961270;28;20046;-81
2022/12/13 00:10:27;;;;;;;87.13;40.78;;;;;;;2.61;79.79;100690.25;4945261;28;20046;-80
2022/12/13 00:12:54;;;;;;;105.00;42.42;;;;;;;3.21;79.65;100790.94;4945140;28;20519;-80
2022/12/13 00:15:26;;;;;;;104.50;42.17;;;;;;;3.10;79.20;100777.56;4945115;28;20567;-80
2022/12/13 00:17:56;;;;;;;103.78;43.72;;;;;;;2.63;79.42;100715.44;4945237;28;20501;-79
2022/12/13 00:20:27;;;;;;;120.75;42.38;;;;;;;3.11;79.58;100797.63;4944652;28;20235;-81
2022/12/13 00:22:55;;;;;;;97.65;42.55;;;;;;;3.12;80.08;100804.56;4943858;28;20514;-82
2022/12/13 00:25:28;;;;;;;102.32;41.58;;;;;;;2.17;80.40;100655.03;4948465;28;20360;-78
2022/12/13 00:27:56;;;;;;;100.60;41.45;;;;;;;3.03;80.85;100797.19;4949326;28;20229;-80
2022/12/13 00:30:24;;;;;;;112.07;43.92;;;;;;;2.45;80.48;100687.59;4967093;28;20283;-80
2022/12/13 00:32:52;;;;;;;101.57;44.55;;;;;;;3.07;79.69;100803.97;4967934;28;20613;-80
2022/12/13 00:35:26;;;;;;;104.05;40.97;;;;;;;3.02;80.41;100784.16;4967151;28;20434;-80
2022/12/13 00:38:10;;;;;;;103.05;43.08;;;;;;;3.16;80.04;100797.38;4969602;28;20061;-82
2022/12/13 00:40:38;;;;;;;119.97;45.53;;;;;;;3.09;80.11;100775.03;4966706;28;20064;-81
2022/12/13 00:43:05;;;;;;;107.78;45.67;;;;;;;3.08;79.27;100781.19;4968596;28;20056;-80
2022/12/13 00:45:37;;;;;;;102.10;40.78;;;;;;;2.73;79.60;100716.63;4966682;28;20089;-81
2022/12/13 00:48:04;;;;;;;98.35;42.40;;;;;;;2.94;79.46;100747.88;4951364;28;20066;-79
2022/12/13 00:50:35;;;;;;;107.43;41.05;;;;;;;2.69;79.63;100698.53;4966382;28;20514;-80
2022/12/13 00:53:02;;;;;;;97.53;40.22;;;;;;;3.05;79.56;100758.59;4966153;28;20042;-82
2022/12/13 00:55:30;;;;;;;104.45;43.25;;;;;;;2.78;79.51;100703.28;4966925;28;20165;-79
2022/12/13 00:58:00;;;;;;;101.15;42.30;;;;;;;2.86;79.46;100701.06;4966206;28;20054;-77
2022/12/13 01:00:26;;;;;;;105.05;43.60;;;;;;;2.54;79.39;100635.53;4983612;28;20148;-79
2022/12/13 01:02:53;;;;;;;101.57;42.28;;;;;;;3.27;79.40;100733.81;4964479;28;20847;-80
2022/12/13 01:05:20;;;;;;;119.45;44.30;;;;;;;3.15;79.23;100711.72;4963593;28;20554;-80
2022/12/13 01:08:07;;;;;;;110.85;45.63;;;;;;;3.07;78.66;100693.78;4949668;28;20061;-80
2022/12/13 01:10:34;;;;;;;120.40;46.53;;;;;;;3.25;78.35;100749.63;4951860;28;20054;-77
2022/12/13 01:13:06;;;;;;;109.00;43.10;;;;;;;3.21;78.80;100754.22;4950584;28;20359;-80
2022/12/13 01:15:33;;;;;;;118.00;45.03;;;;;;;2.33;78.52;100598.28;4946579;28;20640;-80
2022/12/13 01:18:00;;;;;;;118.30;45.88;;;;;;;2.86;78.71;100694.97;4944952;28;20483;-79
2022/12/13 01:20:27;;;;;;;116.78;46.78;;;;;;;3.06;78.77;100722.72;4945936;28;20309;-79
2022/12/13 01:22:54;;;;;;;116.25;45.00;;;;;;;3.27;78.94;100744.28;4947720;28;20547;-79
2022/12/13 01:25:28;;;;;;;111.90;47.08;;;;;;;3.30;78.24;100746.75;4948008;28;20164;-78
2022/12/13 01:27:55;;;;;;;106.95;43.55;;;;;;;3.28;78.06;100738.13;4949167;28;20089;-79
2022/12/13 01:30:23;;;;;;;109.10;46.22;;;;;;;2.94;77.76;100691.03;4966312;28;20488;-79
2022/12/13 01:32:50;;;;;;;110.30;45.63;;;;;;;3.02;78.79;100721.22;4962856;28;20054;-79
2022/12/13 01:35:20;;;;;;;111.38;45.63;;;;;;;3.19;79.09;100748.19;4978804;28;20271;-80
2022/12/13 01:37:48;;;;;;;113.63;45.08;;;;;;;3.02;77.68;100715.97;4963103;28;20594;-79
2022/12/13 01:40:14;;;;;;;105.85;45.00;;;;;;;3.09;78.12;100728.66;4963867;28;20492;-80
2022/12/13 01:42:42;;;;;;;120.13;46.85;;;;;;;3.25;77.50;100740.91;4965518;28;20692;-79
2022/12/13 01:45:29;;;;;;;120.93;46.28;;;;;;;3.22;77.88;100734.91;4965672;28;20049;-79
2022/12/13 01:48:04;;;;;;;127.43;49.90;;;;;;;3.20;77.13;100730.66;4981163;28;20281;-79
2022/12/13 01:50:40;;;;;;;119.27;45.70;;;;;;;3.03;77.93;100734.22;4981437;28;20402;-79
2022/12/13 01:53:14;;;;;;;117.90;46.55;;;;;;;3.14;78.22;100742.38;4961959;28;20050;-79
2022/12/13 01:55:43;;;;;;;118.63;50.08;;;;;;;2.88;78.31;100701.00;4980197;28;20502;-79
2022/12/13 01:58:13;;;;;;;118.43;45.25;;;;;;;2.89;78.46;100694.81;4963209;28;20439;-79
2022/12/13 02:00:59;;;;;;;132.82;49.63;;;;;;;2.97;78.88;100734.59;4960428;28;20042;-79
2022/12/13 02:03:35;;;;;;;130.45;48.60;;;;;;;3.04;79.15;100735.94;4980602;28;20323;-78
2022/12/13 02:06:09;;;;;;;110.45;46.13;;;;;;;2.95;78.61;100712.84;4979618;28;20049;-80
2022/12/13 02:08:37;;;;;;;125.37;49.30;;;;;;;2.45;78.80;100630.81;4980787;28;20069;-79
2022/12/13 02:11:28;;;;;;;132.45;49.35;;;;;;;2.94;78.63;100703.28;4963560;28;20549;-79
2022/12/13 02:14:30;;;;;;;126.63;47.67;;;;;;;2.65;78.32;100669.03;4986416;28;20504;-78
2022/12/13 02:17:26;;;;;;;136.40;52.35;;;;;;;2.98;78.55;100726.63;4888833;28;20495;-78
2022/12/13 02:19:56;;;;;;;135.27;51.20;;;;;;;2.94;79.06;100713.78;4963407;28;20395;-80
2022/12/13 02:22:49;;;;;;;144.32;54.22;;;;;;;3.05;79.16;100729.75;4978811;28;20081;-79
2022/12/13 02:25:41;;;;;;;134.70;51.38;;;;;;;3.09;78.84;100719.94;4956504;28;20060;-79
2022/12/13 02:28:38;;;;;;;133.18;50.10;;;;;;;2.93;79.29;100701.59;4953811;28;20449;-77
2022/12/13 02:31:08;;;;;;;145.20;49.47;;;;;;;3.04;79.45;100719.38;4949367;28;20771;-79
2022/12/13 02:34:03;;;;;;;151.13;54.35;;;;;;;2.74;78.54;100654.56;4962111;28;20566;-80
2022/12/13 02:37:10;;;;;;;137.93;51.40;;;;;;;2.99;79.06;100706.50;4960070;28;20229;-79
2022/12/13 02:40:12;;;;;;;143.27;52.77;;;;;;;2.77;78.82;100673.59;4961333;28;20606;-79
2022/12/13 02:43:03;;;;;;;135.45;52.58;;;;;;;2.70;79.44;100659.13;4963321;28;20538;-79
2022/12/13 02:45:44;;;;;;;134.15;48.85;;;;;;;2.51;79.38;100629.63;4961801;28;20058;-78
2022/12/13 02:48:35;;;;;;;150.65;50.17;;;;;;;3.08;78.76;100707.75;4964638;28;20050;-78
2022/12/13 02:51:04;;;;;;;141.85;51.22;;;;;;;2.94;78.90;100700.66;4979623;28;20556;-80
2022/12/13 02:53:33;;;;;;;137.10;52.43;;;;;;;3.11;78.60;100705.81;4961290;28;20046;-79
2022/12/13 02:56:00;;;;;;;143.13;51.30;;;;;;;2.79;77.97;100657.75;4959411;28;20050;-79
2022/12/13 02:58:39;;;;;;;136.43;52.27;;;;;;;2.43;78.02;100603.84;4963574;28;20665;-79
2022/12/13 03:01:28;;;;;;;122.05;50.13;;;;;;;3.06;78.07;100701.75;4952312;28;20520;-79
2022/12/13 03:04:16;;;;;;;131.50;53.70;;;;;;;3.00;77.01;100681.94;4940022;28;20076;-78
2022/12/13 03:07:05;;;;;;;144.43;55.28;;;;;;;2.52;78.04;100629.53;4941811;28;20064;-79
2022/12/13 03:10:20;;;;;;;125.80;50.63;;;;;;;3.04;78.49;100722.00;4942741;28;20057;-79
2022/12/13 03:15:59;;;;;;;144.00;52.93;;;;;;;3.00;77.98;100713.44;4895543;29;20047;-78
2022/12/13 03:18:32;;;;;;;135.33;51.47;;;;;;;2.80;78.52;100684.84;4935159;28;20129;-79
2022/12/13 03:21:11;;;;;;;137.07;52.87;;;;;;;2.80;78.21;100674.38;4946381;28;20472;-80
2022/12/13 03:23:40;;;;;;;125.87;49.67;;;;;;;2.54;78.34;100638.16;4946094;28;20089;-79
2022/12/13 03:26:15;;;;;;;127.90;49.80;;;;;;;3.10;77.69;100693.63;4946746;28;20436;-79
2022/12/13 03:28:42;;;;;;;126.75;49.40;;;;;;;2.99;76.71;100656.66;4951486;28;20058;-79
2022/12/13 03:31:09;;;;;;;129.63;51.87;;;;;;;2.20;77.01;100523.88;4960253;28;20506;-78
2022/12/13 03:33:39;;;;;;;132.73;52.10;;;;;;;3.09;77.65;100670.94;4965567;28;20053;-80
2022/12/13 03:36:12;;;;;;;129.05;49.90;;;;;;;2.85;77.56;100631.22;4965673;28;20062;-80
2022/12/13 03:38:40;;;;;;;136.30;52.93;;;;;;;2.93;78.42;100672.75;4965135;28;20153;-79
2022/12/13 03:41:13;;;;;;;146.37;54.90;;;;;;;2.64;77.89;100628.00;4962917;28;20682;-78
2022/12/13 03:43:41;;;;;;;123.93;50.75;;;;;;;2.93;78.43;100649.13;4963311;28;20053;-80
2022/12/13 03:46:17;;;;;;;123.30;47.73;;;;;;;3.08;77.51;100689.38;4980698;28;20050;-77
2022/12/13 03:49:05;;;;;;;116.37;51.37;;;;;;;2.90;77.36;100676.38;4964530;28;20075;-77
2022/12/13 03:52:14;;;;;;;131.27;50.87;;;;;;;2.99;78.28;100691.59;4965399;28;20526;-79
2022/12/13 03:54:41;;;;;;;126.53;50.40;;;;;;;3.09;77.79;100685.84;4965832;28;20068;-80
2022/12/13 03:57:14;;;;;;;139.87;53.40;;;;;;;2.85;77.65;100657.44;4962024;28;20614;-80
2022/12/13 03:59:41;;;;;;;135.40;53.27;;;;;;;2.62;78.27;100622.03;4963285;28;20526;-81
2022/12/13 04:02:08;;;;;;;127.00;49.37;;;;;;;2.94;78.10;100666.56;4951790;28;20518;-79
2022/12/13 04:04:57;;;;;;;151.70;54.65;;;;;;;2.61;77.36;100601.97;4951986;28;20145;-80
2022/12/13 04:07:27;;;;;;;138.68;50.88;;;;;;;3.05;77.85;100679.06;4965272;28;20070;-80
2022/12/13 04:10:01;;;;;;;148.70;54.60;;;;;;;3.01;77.93;100670.56;4949521;28;20149;-78
2022/12/13 04:15:17;;;;;;;139.77;53.83;;;;;;;2.97;77.95;100675.09;4966540;28;20082;-77
2022/12/13 04:17:44;;;;;;;145.30;53.93;;;;;;;2.67;78.74;100635.72;4946745;28;20171;-78
2022/12/13 04:20:16;;;;;;;146.23;54.90;;;;;;;3.01;78.31;100688.91;4948795;28;20526;-79
2022/12/13 04:22:43;;;;;;;135.37;52.27;;;;;;;2.72;77.83;100640.72;4965434;28;20638;-80
2022/12/13 04:25:11;;;;;;;143.03;53.60;;;;;;;2.78;77.89;100666.56;4947488;28;20057;-79
2022/12/13 04:27:38;;;;;;;133.40;53.13;;;;;;;2.79;78.22;100678.75;4947940;28;20062;-78
2022/12/13 04:30:08;;;;;;;135.93;53.97;;;;;;;2.76;79.13;100690.25;4947513;28;20054;-80
2022/12/13 04:32:35;;;;;;;126.53;53.13;;;;;;;2.45;79.01;100627.31;4960596;28;20664;-81
2022/12/13 04:35:03;;;;;;;123.60;51.77;;;;;;;2.81;79.39;100681.28;4976659;28;20135;-80
2022/12/13 04:37:31;;;;;;;126.20;49.60;;;;;;;2.72;79.18;100667.78;4983850;28;20634;-80
2022/12/13 04:40:01;;;;;;;136.17;50.03;;;;;;;2.54;78.80;100624.22;4959747;28;20259;-78
2022/12/13 04:42:28;;;;;;;131.50;51.67;;;;;;;2.58;78.69;100641.47;4968322;28;20852;-79
2022/12/13 04:44:56;;;;;;;119.20;48.07;;;;;;;2.45;78.71;100620.34;4968363;28;20050;-79
2022/12/13 04:47:23;;;;;;;104.47;46.83;;;;;;;2.80;79.23;100695.34;4986291;28;20129;-80
2022/12/13 04:49:56;;;;;;;115.90;45.23;;;;;;;2.68;79.25;100674.09;4965642;28;20057;-80
2022/12/13 04:52:24;;;;;;;113.10;48.50;;;;;;;2.16;78.86;100582.63;4968204;28;20072;-79
2022/12/13 04:54:56;;;;;;;113.07;47.70;;;;;;;2.56;79.71;100656.44;4967918;28;20422;-77
2022/12/13 04:57:23;;;;;;;102.17;46.17;;;;;;;2.78;79.53;100696.25;4966797;28;20054;-79
2022/12/13 04:59:52;;;;;;;103.07;46.33;;;;;;;2.40;78.79;100609.22;4966585;28;20131;-77
2022/12/13 05:02:19;;;;;;;102.33;45.30;;;;;;;2.49;79.44;100642.81;4949874;28;20382;-79
2022/12/13 05:04:54;;;;;;;108.00;48.30;;;;;;;2.77;79.02;100686.72;4948489;28;20050;-80
2022/12/13 05:07:26;;;;;;;95.53;43.23;;;;;;;2.66;78.82;100678.56;4949452;28;20456;-79
2022/12/13 05:09:57;;;;;;;98.23;45.50;;;;;;;2.64;78.51;100669.09;4947287;28;20489;-77
2022/12/13 05:12:26;;;;;;;98.77;44.27;;;;;;;2.75;78.50;100680.69;4947838;28;20062;-79
2022/12/13 05:14:54;;;;;;;104.33;47.97;;;;;;;2.46;78.50;100655.25;4962526;28;20544;-78
2022/12/13 05:17:22;;;;;;;95.37;43.33;;;;;;;2.72;78.63;100691.38;4966790;28;20052;-79
2022/12/13 05:19:51;;;;;;;101.97;46.90;;;;;;;2.54;78.70;100659.13;4948434;28;20052;-80
2022/12/13 05:22:31;;;;;;;98.93;44.80;;;;;;;2.42;78.94;100651.09;4949465;28;20153;-77
2022/12/13 05:25:24;;;;;;;95.20;44.93;;;;;;;2.03;79.04;100589.44;4965824;28;20141;-79
2022/12/13 05:27:56;;;;;;;95.80;43.83;;;;;;;2.49;79.18;100661.16;4949046;28;20062;-80
2022/12/13 05:30:23;;;;;;;100.83;45.10;;;;;;;2.60;79.72;100689.41;4983697;28;20152;-80
2022/12/13 05:32:51;;;;;;;102.23;45.50;;;;;;;2.49;80.79;100681.28;4967508;28;20157;-78
2022/12/13 05:35:18;;;;;;;101.13;44.07;;;;;;;2.72;79.68;100693.97;4984993;28;20050;-79
2022/12/13 05:37:53;;;;;;;104.82;44.35;;;;;;;2.65;79.52;100692.63;4966994;28;20148;-78
2022/12/13 05:40:24;;;;;;;95.23;43.73;;;;;;;2.76;79.34;100695.47;4970169;28;20951;-80
2022/12/13 05:42:57;;;;;;;102.60;43.73;;;;;;;2.41;79.90;100650.25;4968167;28;20089;-79
2022/12/13 05:45:31;;;;;;;103.53;47.08;;;;;;;2.65;79.58;100683.91;4969178;28;20057;-79
2022/12/13 05:48:03;;;;;;;108.77;46.77;;;;;;;2.50;79.45;100643.66;4991538;28;20650;-79
2022/12/13 05:50:30;;;;;;;92.20;45.07;;;;;;;2.63;78.15;100663.03;4974363;28;20050;-78
2022/12/13 05:52:57;;;;;;;100.40;46.57;;;;;;;2.69;78.82;100678.41;4968613;28;20050;-79
2022/12/13 05:55:24;;;;;;;110.10;44.13;;;;;;;2.46;79.13;100653.47;4968560;28;20061;-80
2022/12/13 05:57:51;;;;;;;99.83;45.77;;;;;;;2.53;79.24;100672.31;4968998;28;20058;-81
2022/12/13 06:00:18;;;;;;;97.80;44.17;;;;;;;2.30;79.64;100632.47;4984142;28;20061;-81
2022/12/13 06:02:57;;;;;;;95.10;43.73;;;;;;;2.25;80.01;100626.63;4967900;28;20069;-79
2022/12/13 06:09:13;;;;;;;92.00;41.77;;;;;;;2.42;80.12;100648.47;4923054;28;20328;-81
2022/12/13 06:11:40;;;;;;;78.70;40.53;;;;;;;2.07;80.06;100590.97;4974855;28;20465;-80
2022/12/13 06:14:09;;;;;;;86.20;41.10;;;;;;;2.53;79.71;100680.19;4962372;28;20056;-80
2022/12/13 06:16:53;;;;;;;87.90;39.80;;;;;;;2.45;79.13;100658.78;4961132;28;20242;-79
2022/12/13 06:19:21;;;;;;;82.95;36.85;;;;;;;2.44;78.78;100646.63;4970027;28;20054;-80
2022/12/13 06:21:49;;;;;;;84.60;38.70;;;;;;;2.42;78.52;100644.06;4973355;28;20272;-79
2022/12/13 06:24:19;;;;;;;78.20;38.57;;;;;;;2.54;78.82;100647.78;4997231;28;20061;-80
2022/12/13 06:26:47;;;;;;;70.17;38.33;;;;;;;2.57;78.57;100652.88;4961510;28;20050;-80
2022/12/13 06:29:15;;;;;;;72.27;38.03;;;;;;;2.15;78.92;100588.78;4963538;28;20249;-78
2022/12/13 06:31:56;;;;;;;72.53;35.60;;;;;;;2.46;78.78;100644.75;4973533;28;20054;-80
2022/12/13 06:34:31;;;;;;;72.73;37.47;;;;;;;2.58;78.69;100664.22;4960059;28;20068;-80
2022/12/13 06:36:58;;;;;;;76.93;37.87;;;;;;;2.63;78.42;100668.28;4959520;28;20649;-82
2022/12/13 06:39:27;;;;;;;60.47;35.83;;;;;;;2.55;78.73;100670.47;4960555;28;20057;-81
2022/12/13 06:42:06;;;;;;;70.27;36.87;;;;;;;2.54;78.72;100676.63;4963959;28;20065;-83
2022/12/13 06:44:37;;;;;;;70.73;36.50;;;;;;;2.41;78.11;100652.88;4962111;28;20601;-83
2022/12/13 06:47:04;;;;;;;69.57;36.43;;;;;;;2.69;78.56;100685.44;4958321;28;20868;-80
2022/12/13 06:49:39;;;;;;;71.03;37.57;;;;;;;2.39;78.17;100659.13;4954409;28;20481;-84
2022/12/13 06:52:11;;;;;;;61.87;35.37;;;;;;;2.57;78.25;100694.78;4955934;28;20550;-79
2022/12/13 06:54:41;;;;;;;67.33;35.00;;;;;;;2.32;78.79;100675.16;4961872;28;20049;-82
2022/12/13 06:57:11;;;;;;;65.13;35.10;;;;;;;2.63;78.01;100697.09;4959900;28;20061;-82
2022/12/13 06:59:46;;;;;;;66.93;35.27;;;;;;;2.56;78.18;100693.13;4953605;28;20564;-81
2022/12/13 07:02:13;;;;;;;61.27;34.33;;;;;;;2.64;78.01;100714.50;4951993;28;20537;-80
2022/12/13 07:04:50;;;;;;;66.57;36.00;;;;;;;2.45;78.54;100708.56;4962408;28;20568;-82
2022/12/13 07:07:17;;;;;;;61.93;34.07;;;;;;;2.43;77.88;100692.94;4979142;28;20400;-82
2022/12/13 07:09:52;;;;;;;57.60;32.77;;;;;;;2.44;78.84;100706.88;4944302;28;20057;-83
2022/12/13 07:12:19;;;;;;;65.38;32.55;;;;;;;2.29;78.92;100685.81;4960038;28;20491;-83
2022/12/13 07:14:47;;;;;;;61.10;35.10;;;;;;;2.43;78.87;100703.41;4957719;28;20049;-83
2022/12/13 07:17:14;;;;;;;56.30;33.70;;;;;;;2.14;78.88;100655.19;4958459;28;20570;-81
2022/12/13 07:20:06;;;;;;;56.70;32.57;;;;;;;1.14;79.00;100497.28;4967468;28;20076;-83
2022/12/13 07:22:35;;;;;;;61.00;32.70;;;;;;;2.22;79.94;100686.22;4976564;28;20157;-83
2022/12/13 07:25:07;;;;;;;55.30;32.10;;;;;;;2.46;79.46;100712.91;4958424;28;20526;-80
2022/12/13 07:28:00;;;;;;;63.50;33.80;;;;;;;2.18;79.90;100664.56;4961378;28;20470;-83
2022/12/13 07:30:37;;;;;;;64.40;35.47;;;;;;;1.97;79.72;100621.19;4957308;28;20052;-84
2022/12/13 07:33:07;;;;;;;57.20;33.60;;;;;;;2.55;79.01;100696.69;4958066;28;20065;-84
2022/12/13 07:35:36;;;;;;;58.37;32.03;;;;;;;2.49;78.34;100699.63;4961013;28;20112;-81
2022/12/13 07:38:04;;;;;;;58.70;33.00;;;;;;;2.36;78.42;100681.09;4959468;28;20131;-82
2022/12/13 07:40:41;;;;;;;52.10;30.50;;;;;;;2.48;79.08;100726.75;4960429;28;20057;-82
2022/12/13 07:43:08;;;;;;;55.53;32.13;;;;;;;2.42;79.27;100706.94;4960993;28;20052;-82
2022/12/13 07:45:38;;;;;;;63.17;32.13;;;;;;;2.26;78.75;100685.97;4961108;28;20143;-84
2022/12/13 07:48:07;;;;;;;56.50;32.03;;;;;;;2.25;78.51;100673.78;4979000;28;20503;-81
2022/12/13 07:50:34;;;;;;;63.23;32.97;;;;;;;2.49;78.73;100689.13;4961916;28;20069;-83
2022/12/13 07:53:05;;;;;;;56.63;34.63;;;;;;;2.49;78.08;100702.25;4968482;28;20133;-83
2022/12/13 07:55:34;;;;;;;64.80;33.97;;;;;;;2.62;78.34;100724.25;4988711;28;20117;-79
2022/12/13 07:58:16;;;;;;;65.97;34.63;;;;;;;2.55;79.20;100734.22;4986754;28;20467;-81
2022/12/13 08:00:45;;;;;;;58.35;33.25;;;;;;;2.56;78.63;100724.56;4998249;28;20054;-78
2022/12/13 08:03:14;;;;;;;61.50;32.60;;;;;;;2.69;78.75;100741.31;4996856;28;20050;-81
2022/12/13 08:06:06;;;;;;;54.47;30.83;;;;;;;2.31;77.79;100667.41;4994495;28;20325;-82
2022/12/13 08:08:37;;;;;;;62.50;31.88;;;;;;;2.67;78.77;100732.72;4977020;28;20152;-81
2022/12/13 08:11:09;;;;;;;57.30;32.47;;;;;;;2.30;78.24;100671.75;4978013;28;20431;-81
2022/12/13 08:13:39;;;;;;;59.83;32.87;;;;;;;1.55;78.68;100541.38;4959269;28;20049;-80
2022/12/13 08:16:09;;;;;;;64.23;32.77;;;;;;;2.73;78.38;100727.13;4956764;28;20425;-81
2022/12/13 08:18:58;;;;;;;57.20;32.27;;;;;;;2.83;78.55;100743.19;4961157;28;20064;-79
2022/12/13 08:21:40;;;;;;;63.10;32.67;;;;;;;2.48;78.23;100700.56;4956858;28;20057;-80
2022/12/13 08:24:29;;;;;;;58.17;32.57;;;;;;;2.62;78.20;100734.75;4958696;28;20635;-81
2022/12/13 08:27:01;;;;;;;63.03;33.37;;;;;;;2.16;79.08;100674.31;4958451;28;20056;-82
2022/12/13 08:29:33;;;;;;;55.87;34.27;;;;;;;2.52;79.27;100729.13;4957791;28;20137;-79
2022/12/13 08:32:08;;;;;;;68.67;33.37;;;;;;;2.62;79.29;100745.22;4976710;28;20156;-80
2022/12/13 08:34:35;;;;;;;66.27;32.53;;;;;;;2.54;79.22;100734.28;4959927;28;20050;-80
2022/12/13 08:37:06;;;;;;;59.05;33.00;;;;;;;2.24;79.59;100687.81;4962123;28;20065;-79
2022/12/13 08:39:37;;;;;;;52.03;31.53;;;;;;;2.08;79.68;100658.13;4960460;28;20049;-81
2022/12/13 08:42:31;;;;;;;65.67;32.77;;;;;;;1.63;78.87;100576.69;4982094;28;20075;-81
2022/12/13 08:44:59;;;;;;;61.10;31.03;;;;;;;2.46;79.64;100731.25;4959589;28;20340;-81
2022/12/13 08:47:26;;;;;;;57.43;31.53;;;;;;;2.54;79.69;100742.16;4962400;28;20053;-79
2022/12/13 08:49:55;;;;;;;55.80;31.60;;;;;;;1.99;80.10;100664.72;4962681;28;20720;-81
2022/12/13 08:52:30;;;;;;;54.20;30.93;;;;;;;2.77;78.85;100767.16;4964968;28;20538;-80
2022/12/13 08:55:05;;;;;;;53.90;31.17;;;;;;;2.61;79.32;100764.47;4965602;28;20062;-80
2022/12/13 08:57:37;;;;;;;51.93;28.60;;;;;;;2.21;78.62;100687.13;4963430;28;20272;-79
2022/12/13 09:00:05;;;;;;;51.30;29.53;;;;;;;2.69;78.74;100780.63;4962795;28;20489;-81
2022/12/13 09:02:32;;;;;;;53.00;29.47;;;;;;;2.60;78.73;100752.31;4958918;28;20057;-80
2022/12/13 09:05:06;;;;;;;60.10;29.60;;;;;;;2.74;78.00;100767.28;4961342;28;20845;-81
2022/12/13 09:07:34;;;;;;;53.17;30.47;;;;;;;2.62;78.05;100753.09;4958076;28;20058;-79
2022/12/13 09:10:03;;;;;;;57.80;32.23;;;;;;;2.59;79.43;100775.97;4960906;28;20061;-80
2022/12/13 09:12:50;;;;;;;57.23;32.97;;;;;;;2.67;78.96;100790.38;4965181;28;20570;-79
2022/12/13 09:15:28;;;;;;;52.17;30.30;;;;;;;2.41;79.07;100743.75;4962797;28;20054;-80
2022/12/13 09:18:03;;;;;;;55.57;30.73;;;;;;;2.53;79.87;100769.28;4957783;28;20058;-80
2022/12/13 09:20:34;;;;;;;45.87;30.30;;;;;;;2.66;79.94;100791.28;4973961;28;20062;-80
2022/12/13 09:23:09;;;;;;;56.57;32.33;;;;;;;2.67;79.54;100790.38;4959965;28;20058;-79
2022/12/13 09:25:59;;;;;;;50.10;30.35;;;;;;;2.69;79.37;100792.91;4960154;28;20057;-80
2022/12/13 09:28:32;;;;;;;51.27;31.10;;;;;;;2.73;79.29;100803.16;4961144;28;20143;-82
2022/12/13 09:30:59;;;;;;;56.20;33.20;;;;;;;2.64;78.81;100776.56;4960749;28;20053;-81
2022/12/13 09:33:26;;;;;;;53.77;32.13;;;;;;;2.85;78.82;100803.44;4959650;28;20053;-82
2022/12/13 09:35:56;;;;;;;46.77;29.87;;;;;;;2.77;79.24;100791.59;4961525;28;20521;-81
2022/12/13 09:38:27;;;;;;;47.83;30.90;;;;;;;2.66;78.84;100743.28;4962157;28;20477;-84
2022/12/13 09:40:59;;;;;;;42.23;28.87;;;;;;;2.74;78.57;100772.53;4960158;28;20054;-82
2022/12/13 09:43:32;;;;;;;58.03;33.47;;;;;;;2.78;79.30;100788.00;4960008;28;20054;-82
2022/12/13 09:46:41;;;;;;;48.30;31.93;;;;;;;1.87;80.12;100642.63;4963003;28;20495;-82
2022/12/13 09:49:21;;;;;;;52.93;30.43;;;;;;;2.72;79.14;100771.78;4945191;28;20073;-81
2022/12/13 09:52:00;;;;;;;55.53;31.47;;;;;;;2.72;79.29;100771.78;4949573;28;20483;-83
2022/12/13 09:54:38;;;;;;;49.63;30.73;;;;;;;2.18;79.10;100688.13;4964308;28;20050;-84
2022/12/13 09:57:26;;;;;;;56.30;32.53;;;;;;;2.11;79.18;100681.53;4964417;28;20492;-81
2022/12/13 10:00:00;;;;;;;58.27;31.30;;;;;;;2.11;79.71;100677.16;4946935;28;20061;-81
2022/12/13 10:02:30;;;;;;;52.93;29.37;;;;;;;2.81;80.03;100780.91;4960695;28;20124;-81
2022/12/13 10:05:20;;;;;;;52.07;31.97;;;;;;;2.32;80.00;100717.06;4965624;28;20875;-82
2022/12/13 10:08:05;;;;;;;48.90;30.00;;;;;;;2.75;79.51;100782.09;4963767;28;20748;-82
2022/12/13 10:10:31;;;;;;;54.10;29.97;;;;;;;2.76;79.52;100779.38;4960529;28;20053;-81
2022/12/13 10:13:40;;;;;;;56.13;29.73;;;;;;;2.27;79.96;100703.38;4981336;28;20327;-81
2022/12/13 10:16:14;;;;;;;49.87;30.53;;;;;;;2.72;79.64;100767.38;4954333;28;20127;-87
2022/12/13 10:18:49;;;;;;;48.35;26.70;;;;;;;2.84;78.59;100775.50;4987540;28;20049;-91
2022/12/13 10:21:41;;;;;;;48.07;25.90;;;;;;;2.74;79.21;100776.03;4970453;28;20053;-92
2022/12/13 10:24:17;;;;;;;47.40;23.60;;;;;;;2.26;78.72;100701.69;4963768;28;20064;-83
2022/12/13 10:27:13;;;;;;;41.77;24.30;;;;;;;2.65;78.88;100744.22;4965246;28;20060;-82
2022/12/13 10:30:26;;;;;;;43.37;23.67;;;;;;;2.58;78.59;100754.16;4958610;28;20304;-82
2022/12/13 10:33:01;;;;;;;34.13;22.43;;;;;;;2.50;78.06;100711.78;4982771;28;20060;-83
2022/12/13 10:35:36;;;;;;;30.40;19.97;;;;;;;2.66;77.44;100736.25;4964354;28;20058;-83
2022/12/13 10:38:06;;;;;;;35.07;21.03;;;;;;;2.80;77.84;100764.34;5002334;28;20064;-83
2022/12/13 10:40:44;;;;;;;36.23;20.83;;;;;;;1.52;78.16;100576.38;4987989;28;20528;-82
2022/12/13 10:43:17;;;;;;;33.43;19.47;;;;;;;2.47;78.13;100725.06;4968752;28;20060;-81
2022/12/13 10:46:02;;;;;;;33.03;20.77;;;;;;;2.75;77.58;100766.38;4967131;28;20149;-82
2022/12/13 10:48:51;;;;;;;35.53;21.87;;;;;;;2.80;77.29;100766.13;4973210;28;20045;-81
2022/12/13 10:51:21;;;;;;;38.27;22.27;;;;;;;2.13;77.60;100684.91;4987168;28;20049;-84
2022/12/13 10:53:58;;;;;;;32.57;20.70;;;;;;;2.40;77.43;100734.16;4971151;28;20499;-82
2022/12/13 10:56:46;;;;;;;30.47;19.87;;;;;;;2.11;77.46;100692.00;4948002;28;20054;-82
2022/12/13 10:59:17;;;;;;;36.07;20.30;;;;;;;2.63;78.07;100773.13;4952226;28;20062;-83
2022/12/13 11:01:48;;;;;;;35.22;22.25;;;;;;;2.60;77.52;100760.19;4951843;28;20069;-80
2022/12/13 11:04:28;;;;;;;35.67;20.87;;;;;;;2.64;77.95;100780.03;4963240;28;20057;-81
2022/12/13 11:06:58;;;;;;;33.20;20.90;;;;;;;2.59;77.30;100742.75;4956059;28;20879;-82
2022/12/13 11:09:33;;;;;;;32.77;19.90;;;;;;;2.78;77.78;100761.81;4942947;28;20058;-79
2022/12/13 11:12:19;;;;;;;35.40;20.17;;;;;;;1.46;76.64;100554.03;4942309;28;20058;-80
2022/12/13 11:15:00;;;;;;;;;;;;;;;2.70;76.93;100757.91;4949588;28;20300;-80
2022/12/13 11:17:30;;;;;;;31.60;19.97;;;;;;;2.65;77.21;100752.06;4946548;28;19925;-81
2022/12/13 11:20:01;;;;;;;32.93;19.23;;;;;;;2.77;76.83;100754.88;4943453;28;20610;-81
2022/12/13 11:22:31;;;;;;;31.33;19.53;;;;;;;2.29;76.44;100666.63;4944622;28;20081;-80
2022/12/13 11:25:03;;;;;;;;;;;;;;;2.80;75.10;100753.03;4947442;28;20054;-80
2022/12/13 11:27:54;;;;;;;40.20;18.77;;;;;;;2.78;76.20;100750.47;4962427;28;19984;-80
2022/12/13 11:30:43;;;;;;;32.27;19.07;;;;;;;2.83;77.00;100742.34;4960925;28;20325;-80
2022/12/13 11:33:28;;;;;;;33.23;18.97;;;;;;;2.83;75.79;100730.09;4941238;28;20472;-81
2022/12/13 11:36:14;;;;;;;36.03;20.43;;;;;;;2.89;76.01;100726.28;4942836;28;20523;-80
2022/12/13 11:39:01;;;;;;;28.27;17.67;;;;;;;2.64;74.80;100690.91;4940101;28;20568;-80
2022/12/13 11:41:34;;;;;;;34.07;20.80;;;;;;;2.96;75.79;100732.88;4942437;28;20435;-79
2022/12/13 11:44:20;;;;;;;32.10;19.00;;;;;;;2.95;74.69;100718.94;4941437;28;20058;-81
2022/12/13 11:46:51;;;;;;;33.93;19.20;;;;;;;2.19;74.98;100610.44;4943020;28;20573;-81
2022/12/13 11:49:27;;;;;;;33.77;21.37;;;;;;;1.45;74.22;100471.22;4946423;28;20609;-81
2022/12/13 11:52:05;;;;;;;35.50;19.77;;;;;;;3.00;74.91;100723.91;4944061;28;20062;-80
2022/12/13 11:54:48;;;;;;;31.43;18.60;;;;;;;1.83;74.81;100541.59;4941013;28;20117;-81
2022/12/13 11:57:45;;;;;;;33.83;21.57;;;;;;;2.97;74.63;100729.34;4944651;28;20051;-81